Time;durP1;ratioP1;P1;durP2;ratioP2;P2;SDS_P1;SDS_P2;PMS_P1;PMS_P2;Temp;Humidity;BMP_temperature;BMP_pressure;BME280_temperature;BME280_humidity;BME280_pressure;Samples;Min_cycle;Max_cycle;Signal;HPM_P1;HPM_P2
2021/01/09 00:02:14;;;;;;;45.00;27.13;;;;;;;-0.03;100.00;101643.91;6298289;22;20019;-84
2021/01/09 00:04:40;;;;;;;48.95;28.00;;;;;;;0.00;100.00;101642.91;6273372;22;20015;-86
2021/01/09 00:07:08;;;;;;;43.90;26.00;;;;;;;-0.01;100.00;101638.53;6273982;22;20023;-84
2021/01/09 00:09:33;;;;;;;43.42;27.02;;;;;;;-0.01;100.00;101647.31;6246582;22;20015;-84
2021/01/09 00:11:58;;;;;;;42.42;24.60;;;;;;;-0.01;100.00;101638.53;6244190;22;20740;-84
2021/01/09 00:14:24;;;;;;;43.65;26.23;;;;;;;-0.04;100.00;101641.31;6221251;22;20011;-85
2021/01/09 00:16:50;;;;;;;43.67;24.70;;;;;;;-0.05;100.00;101639.63;6246059;22;20015;-85
2021/01/09 00:19:16;;;;;;;45.72;27.30;;;;;;;-0.07;100.00;101646.75;6248485;22;20035;-85
2021/01/09 00:21:41;;;;;;;46.40;27.08;;;;;;;-0.05;100.00;101639.63;6246102;22;20016;-85
2021/01/09 00:24:09;;;;;;;48.28;29.88;;;;;;;-0.04;100.00;101642.19;6246531;22;20016;-85
2021/01/09 00:26:35;;;;;;;45.70;27.52;;;;;;;-0.08;100.00;101648.53;6272832;22;20299;-86
2021/01/09 00:29:00;;;;;;;51.58;29.02;;;;;;;-0.03;100.00;101641.25;6272271;22;20011;-83
2021/01/09 00:31:26;;;;;;;47.33;28.17;;;;;;;-0.02;100.00;101650.03;6247079;22;20382;-85
2021/01/09 00:33:51;;;;;;;40.42;24.58;;;;;;;-0.05;100.00;101645.75;6245833;22;20015;-85
2021/01/09 00:36:17;;;;;;;42.58;25.08;;;;;;;-0.07;100.00;101646.75;6221538;22;20020;-85
2021/01/09 00:38:42;;;;;;;49.58;28.27;;;;;;;-0.05;100.00;101655.47;6245907;22;20019;-86
2021/01/09 00:41:08;;;;;;;45.40;28.25;;;;;;;-0.03;100.00;101653.59;6221482;22;20500;-86
2021/01/09 00:43:33;;;;;;;45.45;29.52;;;;;;;-0.04;100.00;101654.53;6246483;22;20101;-84
2021/01/09 00:45:58;;;;;;;41.67;25.30;;;;;;;-0.07;100.00;101657.31;6222369;22;20011;-85
2021/01/09 00:48:24;;;;;;;45.17;26.75;;;;;;;-0.12;100.00;101654.88;6246139;22;20015;-85
2021/01/09 00:50:49;;;;;;;50.75;28.67;;;;;;;-0.08;100.00;101660.88;6245720;22;20020;-85
2021/01/09 00:53:14;;;;;;;44.42;27.83;;;;;;;-0.11;100.00;101668.97;6272919;22;20015;-85
2021/01/09 00:55:40;;;;;;;50.53;30.58;;;;;;;-0.15;100.00;101660.31;6246104;22;20016;-85
2021/01/09 00:58:05;;;;;;;45.33;25.33;;;;;;;-0.17;100.00;101663.94;6271908;22;20339;-84
2021/01/09 01:00:31;;;;;;;45.20;27.05;;;;;;;-0.19;100.00;101664.03;6273667;22;20027;-85
2021/01/09 01:02:56;;;;;;;41.35;25.38;;;;;;;-0.19;100.00;101674.59;6246061;22;20315;-85
2021/01/09 01:05:21;;;;;;;48.65;27.75;;;;;;;-0.22;100.00;101673.91;6246373;22;20023;-85
2021/01/09 01:07:47;;;;;;;45.55;26.52;;;;;;;-0.22;100.00;101680.00;6246035;22;20012;-84
2021/01/09 01:10:13;;;;;;;48.67;28.13;;;;;;;-0.16;100.00;101673.59;6246662;22;20018;-84
2021/01/09 01:12:39;;;;;;;48.85;28.50;;;;;;;-0.21;100.00;101686.16;6271006;22;20016;-85
2021/01/09 01:15:05;;;;;;;44.15;25.92;;;;;;;-0.31;100.00;101681.31;6248243;22;20019;-84
2021/01/09 01:17:30;;;;;;;47.63;27.48;;;;;;;-0.32;100.00;101676.94;6272775;22;20019;-84
2021/01/09 01:19:56;;;;;;;47.60;25.98;;;;;;;-0.37;100.00;101689.50;6219899;22;20046;-85
2021/01/09 01:22:21;;;;;;;46.70;27.23;;;;;;;-0.36;100.00;101685.94;6272216;22;20028;-84
2021/01/09 01:24:46;;;;;;;51.65;29.05;;;;;;;-0.36;100.00;101696.50;6220238;22;20035;-84
2021/01/09 01:27:12;;;;;;;50.22;28.35;;;;;;;-0.34;100.00;101702.56;6273682;22;20091;-84
2021/01/09 01:29:43;;;;;;;42.70;25.60;;;;;;;-0.38;100.00;101695.69;6269840;22;20031;-84
2021/01/09 01:32:14;;;;;;;49.88;26.98;;;;;;;-0.39;100.00;101704.53;6244222;22;20390;-84
2021/01/09 01:34:48;;;;;;;48.72;26.30;;;;;;;-0.43;100.00;101700.34;6243924;22;20085;-85
2021/01/09 01:37:14;;;;;;;55.42;30.50;;;;;;;-0.36;100.00;101707.03;6273230;22;20019;-85
2021/01/09 01:39:39;;;;;;;44.28;27.25;;;;;;;-0.40;100.00;101708.13;6218436;22;20019;-84
2021/01/09 01:42:06;;;;;;;50.50;30.70;;;;;;;-0.35;100.00;101715.81;6269897;22;20012;-85
2021/01/09 01:44:32;;;;;;;47.83;28.67;;;;;;;-0.35;100.00;101719.28;6271525;22;20697;-85
2021/01/09 01:47:02;;;;;;;49.67;29.17;;;;;;;-0.38;100.00;101708.88;6271014;22;20442;-83
2021/01/09 01:49:30;;;;;;;42.70;27.20;;;;;;;-0.40;100.00;101710.75;6270861;22;20465;-84
2021/01/09 01:52:03;;;;;;;49.63;29.33;;;;;;;-0.39;100.00;101709.81;6243485;22;20018;-83
2021/01/09 01:54:28;;;;;;;52.50;29.55;;;;;;;-0.39;100.00;101714.25;6270612;22;20046;-84
2021/01/09 01:56:56;;;;;;;46.38;27.92;;;;;;;-0.42;100.00;101712.59;6243586;22;20091;-84
2021/01/09 01:59:21;;;;;;;49.55;28.33;;;;;;;-0.42;100.00;101709.97;6245405;22;20090;-84
2021/01/09 02:01:49;;;;;;;52.10;29.95;;;;;;;-0.41;100.00;101719.56;6272737;22;20035;-85
2021/01/09 02:04:14;;;;;;;54.80;29.73;;;;;;;-0.43;100.00;101708.28;6258079;22;20020;-85
2021/01/09 02:06:41;;;;;;;47.05;28.50;;;;;;;-0.43;100.00;101712.66;6255428;22;20446;-85
2021/01/09 02:09:16;;;;;;;52.45;30.60;;;;;;;-0.47;100.00;101718.06;6296292;22;20015;-84
2021/01/09 02:12:07;;;;;;;54.72;32.42;;;;;;;-0.46;100.00;101722.44;6269619;22;20050;-84
2021/01/09 02:14:45;;;;;;;53.28;30.42;;;;;;;-0.47;100.00;101727.78;6237024;22;20319;-85
2021/01/09 02:17:16;;;;;;;48.38;28.05;;;;;;;-0.59;100.00;101718.66;6243901;22;20016;-85
2021/01/09 02:19:44;;;;;;;47.47;26.00;;;;;;;-0.65;100.00;101715.44;6256133;22;20020;-86
2021/01/09 02:22:18;;;;;;;56.50;30.33;;;;;;;-0.65;100.00;101728.63;6283150;22;20039;-85
2021/01/09 02:24:46;;;;;;;53.72;30.35;;;;;;;-0.62;100.00;101728.50;6293142;22;20047;-84
2021/01/09 02:27:28;;;;;;;59.15;30.48;;;;;;;-0.65;100.00;101729.47;6269230;22;20012;-85
2021/01/09 02:30:08;;;;;;;53.85;31.13;;;;;;;-0.64;100.00;101730.31;6293710;22;20011;-85
2021/01/09 02:33:00;;;;;;;53.47;31.00;;;;;;;-0.64;100.00;101730.31;6295446;22;20393;-84
2021/01/09 02:35:30;;;;;;;59.30;32.22;;;;;;;-0.70;100.00;101732.31;6217706;22;20023;-85
2021/01/09 02:37:56;;;;;;;48.47;27.85;;;;;;;-0.85;100.00;101729.50;6238280;23;20040;-85
2021/01/09 02:40:22;;;;;;;53.30;29.45;;;;;;;-0.95;100.00;101734.31;6238717;23;20023;-84
2021/01/09 02:42:57;;;;;;;55.38;29.65;;;;;;;-0.97;100.00;101744.94;6250623;22;20057;-85
2021/01/09 02:45:23;;;;;;;57.90;32.55;;;;;;;-0.92;100.00;101742.97;6294841;22;20045;-85
2021/01/09 02:47:50;;;;;;;60.05;35.28;;;;;;;-0.87;100.00;101739.25;6267183;22;20011;-85
2021/01/09 02:50:16;;;;;;;53.92;32.05;;;;;;;-0.90;100.00;101742.88;6268021;22;20012;-85
2021/01/09 02:52:41;;;;;;;58.65;36.38;;;;;;;-0.82;100.00;101745.19;6268319;22;20016;-84
2021/01/09 02:55:09;;;;;;;57.83;32.33;;;;;;;-0.81;100.00;101739.84;6269049;22;20016;-85
2021/01/09 02:57:35;;;;;;;54.88;31.50;;;;;;;-0.86;100.00;101747.13;6269045;22;20039;-85
2021/01/09 03:00:04;;;;;;;63.72;37.72;;;;;;;-0.79;100.00;101743.25;6267877;22;21750;-84
2021/01/09 03:02:31;;;;;;;54.72;31.55;;;;;;;-0.77;100.00;101740.56;6269423;22;20450;-84
2021/01/09 03:05:00;;;;;;;56.78;30.88;;;;;;;-0.79;100.00;101753.81;6270514;22;20481;-85
2021/01/09 03:07:25;;;;;;;48.00;29.02;;;;;;;-0.82;100.00;101751.31;6272199;22;20441;-84
2021/01/09 03:09:51;;;;;;;56.42;31.33;;;;;;;-0.83;100.00;101746.97;6272180;22;20012;-84
2021/01/09 03:12:16;;;;;;;60.13;33.65;;;;;;;-0.78;100.00;101750.25;6270919;22;20068;-85
2021/01/09 03:14:43;;;;;;;52.45;31.40;;;;;;;-0.81;100.00;101753.00;6295199;22;20026;-85
2021/01/09 03:17:10;;;;;;;64.28;36.05;;;;;;;-0.77;100.00;101751.97;6297085;22;20022;-85
2021/01/09 03:19:36;;;;;;;57.85;35.78;;;;;;;-0.66;100.00;101742.72;6269649;22;20537;-85
2021/01/09 03:22:06;;;;;;;56.97;33.75;;;;;;;-0.66;100.00;101750.63;6270282;22;20016;-84
2021/01/09 03:24:31;;;;;;;50.13;30.50;;;;;;;-0.66;100.00;101750.63;6295657;22;20011;-85
2021/01/09 03:26:58;;;;;;;57.95;34.42;;;;;;;-0.64;100.00;101754.06;6271317;22;20019;-85
2021/01/09 03:29:24;;;;;;;54.72;32.65;;;;;;;-0.66;100.00;101753.25;6294895;22;20065;-84
2021/01/09 03:31:51;;;;;;;56.92;34.35;;;;;;;-0.65;100.00;101752.34;6295041;22;20012;-85
2021/01/09 03:34:16;;;;;;;52.58;32.22;;;;;;;-0.71;100.00;101750.84;6271923;22;20090;-86
2021/01/09 03:36:53;;;;;;;60.88;34.70;;;;;;;-0.73;100.00;101750.91;6271799;22;20039;-85
2021/01/09 03:39:20;;;;;;;60.00;34.90;;;;;;;-0.72;100.00;101757.03;6270123;22;20015;-85
2021/01/09 03:41:46;;;;;;;67.60;36.97;;;;;;;-0.66;100.00;101750.63;6295143;22;20022;-84
2021/01/09 03:44:13;;;;;;;52.75;30.73;;;;;;;-0.66;100.00;101763.81;6295983;22;20359;-85
2021/01/09 03:46:39;;;;;;;54.97;33.53;;;;;;;-0.68;100.00;101762.09;6269435;22;20015;-85
2021/01/09 03:49:05;;;;;;;54.47;32.25;;;;;;;-0.66;100.00;101756.78;6296905;22;20023;-85
2021/01/09 03:51:33;;;;;;;61.83;34.15;;;;;;;-0.64;100.00;101768.09;6294866;22;20082;-86
2021/01/09 03:54:04;;;;;;;61.22;35.10;;;;;;;-0.72;100.00;101759.66;6269694;22;20016;-84
2021/01/09 03:56:33;;;;;;;50.60;30.33;;;;;;;-0.74;100.00;101767.66;6269432;22;20027;-85
2021/01/09 03:59:02;;;;;;;59.75;32.33;;;;;;;-0.75;100.00;101772.97;6269436;22;20019;-85
2021/01/09 04:01:28;;;;;;;56.63;31.85;;;;;;;-0.78;100.00;101776.59;6270403;22;20026;-84
2021/01/09 04:04:01;;;;;;;58.17;32.83;;;;;;;-0.80;100.00;101770.56;6268739;22;20364;-85
2021/01/09 04:06:29;;;;;;;58.75;33.80;;;;;;;-0.80;100.00;101770.56;6269791;22;20388;-85
2021/01/09 04:09:08;;;;;;;58.38;35.03;;;;;;;-0.82;100.00;101767.13;6270369;22;20044;-85
2021/01/09 04:11:34;;;;;;;56.35;33.33;;;;;;;-0.88;100.00;101770.03;6268210;22;20016;-84
2021/01/09 04:14:06;;;;;;;60.30;33.20;;;;;;;-0.91;100.00;101778.94;6270987;22;20018;-84
2021/01/09 04:16:37;;;;;;;61.35;35.83;;;;;;;-0.83;100.00;101778.59;6271052;22;20023;-83
2021/01/09 04:19:04;;;;;;;66.13;37.13;;;;;;;-0.84;100.00;101774.22;6268815;22;20489;-85
2021/01/09 04:21:30;;;;;;;67.43;36.15;;;;;;;-0.79;100.00;101767.00;6270087;22;20050;-84
2021/01/09 04:23:57;;;;;;;68.72;37.40;;;;;;;-0.81;100.00;101770.63;6270750;22;20067;-85
2021/01/09 04:26:24;;;;;;;63.78;36.58;;;;;;;-0.80;100.00;101770.56;6269946;22;20007;-85
2021/01/09 04:28:52;;;;;;;68.68;39.45;;;;;;;-0.77;100.00;101773.06;6293879;22;20026;-84
2021/01/09 04:31:21;;;;;;;67.60;36.95;;;;;;;-0.73;100.00;101785.16;6270126;22;20023;-84
2021/01/09 04:33:47;;;;;;;67.90;37.47;;;;;;;-0.72;100.00;101775.47;6294490;22;20020;-85
2021/01/09 04:36:12;;;;;;;62.08;34.50;;;;;;;-0.74;100.00;101782.63;6269988;22;20019;-84
2021/01/09 04:38:37;;;;;;;71.18;40.03;;;;;;;-0.76;100.00;101784.44;6270975;22;20007;-85
2021/01/09 04:41:20;;;;;;;66.93;38.22;;;;;;;-0.72;100.00;101781.63;6269031;22;20027;-85
2021/01/09 04:43:48;;;;;;;70.93;37.72;;;;;;;-0.75;100.00;101776.50;6267280;22;20034;-85
2021/01/09 04:46:18;;;;;;;68.10;38.22;;;;;;;-0.72;100.00;101779.00;6271570;22;20008;-85
2021/01/09 04:48:44;;;;;;;65.38;38.05;;;;;;;-0.71;100.00;101783.31;6291850;22;20031;-85
2021/01/09 04:51:11;;;;;;;60.88;36.80;;;;;;;-0.66;100.00;101780.50;6271468;22;20023;-86
2021/01/09 04:53:40;;;;;;;62.85;37.05;;;;;;;-0.65;100.00;101781.34;6269375;22;20008;-86
2021/01/09 04:56:09;;;;;;;64.30;36.22;;;;;;;-0.69;100.00;101786.75;6268668;22;20024;-84
2021/01/09 04:58:41;;;;;;;60.45;34.80;;;;;;;-0.69;100.00;101786.75;6267217;22;20061;-85
2021/01/09 05:01:22;;;;;;;66.72;37.38;;;;;;;-0.71;100.00;101796.50;6270445;22;20080;-85
2021/01/09 05:03:50;;;;;;;65.43;36.72;;;;;;;-0.70;100.00;101792.09;6272418;22;20044;-85
2021/01/09 05:06:20;;;;;;;61.03;34.72;;;;;;;-0.70;100.00;101795.56;6297572;22;20022;-85
2021/01/09 05:08:46;;;;;;;70.72;37.17;;;;;;;-0.72;100.00;101784.25;6271286;22;20019;-85
2021/01/09 05:11:17;;;;;;;61.45;35.65;;;;;;;-0.67;100.00;101794.59;6271601;22;20020;-85
2021/01/09 05:13:47;;;;;;;67.28;36.47;;;;;;;-0.70;100.00;101789.44;6268677;22;20015;-85
2021/01/09 05:16:16;;;;;;;78.20;42.85;;;;;;;-0.67;100.00;101794.59;6296197;22;20022;-85
2021/01/09 05:18:42;;;;;;;140.00;49.67;;;;;;;-0.65;100.00;101790.13;6268498;22;20095;-84
2021/01/09 05:21:12;;;;;;;189.85;52.50;;;;;;;-0.69;100.00;101796.47;6292890;22;20095;-85
2021/01/09 05:23:54;;;;;;;373.70;78.93;;;;;;;-0.63;100.00;101797.94;6268752;22;20019;-85
2021/01/09 05:26:21;;;;;;;246.82;58.17;;;;;;;-0.66;100.00;101801.59;6270644;22;20057;-84
2021/01/09 05:28:51;;;;;;;223.05;51.83;;;;;;;-0.73;100.00;101794.84;6268102;22;20019;-85
2021/01/09 05:31:19;;;;;;;269.13;60.63;;;;;;;-0.68;100.00;101796.38;6270840;22;20099;-84
2021/01/09 05:33:45;;;;;;;267.90;65.10;;;;;;;-0.66;100.00;101792.81;6271156;22;20015;-84
2021/01/09 05:36:12;;;;;;;203.73;58.03;;;;;;;-0.65;100.00;101794.53;6266518;22;20016;-84
2021/01/09 05:38:42;;;;;;;187.25;55.58;;;;;;;-0.71;100.00;101799.16;6293622;22;20016;-84
2021/01/09 05:41:09;;;;;;;306.83;76.03;;;;;;;-0.68;100.00;101798.16;6268224;22;20431;-84
2021/01/09 05:43:36;;;;;;;167.68;43.95;;;;;;;-0.76;100.00;101801.13;6266380;22;20015;-85
2021/01/09 05:46:03;;;;;;;161.30;52.28;;;;;;;-0.77;100.00;101807.31;6230968;22;20110;-84
2021/01/09 05:48:30;;;;;;;202.57;61.50;;;;;;;-0.77;100.00;101799.41;6295804;22;20027;-85
2021/01/09 05:50:59;;;;;;;248.98;74.13;;;;;;;-0.74;100.00;101804.56;6251902;22;20339;-84
2021/01/09 05:53:44;;;;;;;258.17;71.75;;;;;;;-0.70;100.00;101810.53;6236496;23;20359;-84
2021/01/09 05:56:14;;;;;;;197.45;54.40;;;;;;;-0.80;100.00;101814.50;6251119;22;20336;-84
2021/01/09 05:58:40;;;;;;;156.20;46.83;;;;;;;-0.88;100.00;101811.34;6210101;23;20106;-84
2021/01/09 06:01:07;;;;;;;156.88;48.60;;;;;;;-0.81;100.00;101810.16;6209864;23;20055;-84
2021/01/09 06:03:40;;;;;;;128.82;41.72;;;;;;;-0.85;100.00;101819.13;6239103;23;20402;-84
2021/01/09 06:06:29;;;;;;;127.03;42.70;;;;;;;-0.89;100.00;101813.13;6240673;22;20024;-84
2021/01/09 06:08:58;;;;;;;107.97;39.42;;;;;;;-0.92;100.00;101821.16;6239974;22;20027;-84
2021/01/09 06:11:54;;;;;;;154.43;50.22;;;;;;;-0.94;100.00;101829.13;6239705;23;20350;-85
2021/01/09 06:14:24;;;;;;;124.72;44.17;;;;;;;-0.98;100.00;101830.19;6219421;22;20069;-85
2021/01/09 06:16:50;;;;;;;149.75;57.78;;;;;;;-0.90;100.00;101829.84;6294093;22;20016;-85
2021/01/09 06:19:20;;;;;;;159.52;61.63;;;;;;;-0.86;100.00;101827.94;6269920;22;20022;-85
2021/01/09 06:21:45;;;;;;;180.45;64.35;;;;;;;-0.87;100.00;101832.34;6268836;22;20468;-86
2021/01/09 06:24:11;;;;;;;192.73;68.32;;;;;;;-0.82;100.00;101830.38;6271057;22;20394;-85
2021/01/09 06:26:36;;;;;;;224.95;62.13;;;;;;;-0.87;100.00;101820.97;6270646;22;20022;-85
2021/01/09 06:29:19;;;;;;;159.60;59.70;;;;;;;-0.91;100.00;101834.25;6243693;22;20018;-85
2021/01/09 06:32:06;;;;;;;133.95;45.13;;;;;;;-0.93;100.00;101827.34;6271284;22;20018;-85
2021/01/09 06:34:32;;;;;;;129.20;36.53;;;;;;;-1.00;100.00;101828.53;6272200;22;20023;-86
2021/01/09 06:37:03;;;;;;;157.60;39.67;;;;;;;-0.97;100.00;101836.31;6270612;22;20068;-85
2021/01/09 06:39:38;;;;;;;248.05;61.28;;;;;;;-0.92;100.00;101850.16;6272030;22;20069;-86
2021/01/09 06:42:06;;;;;;;215.82;53.42;;;;;;;-0.98;100.00;101839.84;6271347;22;20389;-86
2021/01/09 06:44:32;;;;;;;281.02;66.30;;;;;;;-0.91;100.00;101850.06;6273192;22;20101;-84
2021/01/09 06:46:58;;;;;;;242.75;64.45;;;;;;;-0.89;100.00;101851.78;6276083;22;20427;-85
2021/01/09 06:49:28;;;;;;;375.83;75.18;;;;;;;-0.88;100.00;101843.81;6299258;22;20015;-85
2021/01/09 06:52:02;;;;;;;344.17;79.47;;;;;;;-0.89;100.00;101842.13;6272879;22;20022;-84
2021/01/09 06:54:39;;;;;;;191.52;49.33;;;;;;;-0.95;100.00;101848.50;6274522;22;20023;-84
2021/01/09 06:57:09;;;;;;;358.08;71.93;;;;;;;-0.94;100.00;101849.34;6274954;22;20427;-85
2021/01/09 06:59:38;;;;;;;188.48;55.63;;;;;;;-0.92;100.00;101852.78;6297418;22;20022;-84
2021/01/09 07:02:18;;;;;;;270.00;62.03;;;;;;;-0.93;100.00;101846.63;6296401;22;20359;-84
2021/01/09 07:05:19;;;;;;;233.00;56.72;;;;;;;-0.93;100.00;101845.78;6288333;22;20024;-84
2021/01/09 07:07:52;;;;;;;157.50;43.50;;;;;;;-0.95;100.00;101861.69;6237444;22;20453;-84
2021/01/09 07:10:25;;;;;;;312.40;66.65;;;;;;;-0.89;100.00;101857.94;6268004;22;20008;-84
2021/01/09 07:12:54;;;;;;;265.48;62.55;;;;;;;-0.93;100.00;101853.69;6239724;22;20148;-84
2021/01/09 07:15:20;;;;;;;;;;;;;;;-0.93;100.00;101861.59;6267630;22;20035;-84
2021/01/09 07:17:50;;;;;;;212.52;60.80;;;;;;;-0.98;100.00;101858.28;6239561;22;19907;-84
2021/01/09 07:20:19;;;;;;;210.63;57.80;;;;;;;-0.95;100.00;101863.44;6265059;22;20050;-84
2021/01/09 07:22:48;;;;;;;246.73;67.97;;;;;;;-0.95;100.00;101863.44;6239734;22;20350;-84
2021/01/09 07:25:22;;;;;;;356.02;75.53;;;;;;;-0.91;100.00;101859.78;6215900;22;20024;-84
2021/01/09 07:27:55;;;;;;;151.00;37.85;;;;;;;-0.99;100.00;101862.72;6226541;22;20063;-84
2021/01/09 07:30:23;;;;;;;178.70;51.10;;;;;;;-0.97;100.00;101860.88;6257036;22;20810;-84
2021/01/09 07:32:50;;;;;;;302.65;73.78;;;;;;;-0.89;100.00;101868.47;6241976;22;20419;-84
2021/01/09 07:35:24;;;;;;;244.45;65.90;;;;;;;-0.84;100.00;101866.47;6244977;22;20012;-83
2021/01/09 07:37:55;;;;;;;324.58;76.47;;;;;;;-0.86;100.00;101872.72;6269074;22;20016;-83
2021/01/09 07:40:22;;;;;;;276.65;75.82;;;;;;;-0.86;100.00;101872.72;6239602;22;20068;-83
2021/01/09 07:42:49;;;;;;;227.70;64.88;;;;;;;-0.89;100.00;101879.00;6241326;22;20035;-83
2021/01/09 07:45:19;;;;;;;258.20;66.60;;;;;;;-0.85;100.00;101875.31;6218428;22;20020;-83
2021/01/09 07:47:46;;;;;;;425.63;93.32;;;;;;;-0.83;100.00;101878.75;6238800;22;20073;-84
2021/01/09 07:50:14;;;;;;;274.95;74.63;;;;;;;-0.81;100.00;101881.31;6218056;22;20450;-84
2021/01/09 07:52:40;;;;;;;217.95;63.42;;;;;;;-0.84;100.00;101887.56;6271698;22;20073;-83
2021/01/09 07:55:07;;;;;;;244.25;68.93;;;;;;;-0.87;100.00;101892.13;6238023;22;20056;-83
2021/01/09 07:57:34;;;;;;;287.10;73.90;;;;;;;-0.83;100.00;101885.81;6264243;22;20430;-83
2021/01/09 08:00:10;;;;;;;308.75;76.50;;;;;;;-0.82;100.00;101891.00;6239318;22;20081;-83
2021/01/09 08:02:44;;;;;;;286.58;77.97;;;;;;;-0.82;100.00;101895.41;6213874;22;20073;-84
2021/01/09 08:05:12;;;;;;;152.88;45.25;;;;;;;-0.85;100.00;101895.56;6246188;22;20019;-84
2021/01/09 08:07:41;;;;;;;354.93;80.37;;;;;;;-0.81;100.00;101899.75;6266000;22;20016;-84
2021/01/09 08:10:31;;;;;;;212.55;54.95;;;;;;;-0.91;100.00;101908.06;6267965;22;20430;-84
2021/01/09 08:13:04;;;;;;;446.98;95.50;;;;;;;-0.81;100.00;101905.88;6266626;22;20016;-84
2021/01/09 08:15:31;;;;;;;293.13;74.75;;;;;;;-0.81;100.00;101912.94;6267938;22;20025;-84
2021/01/09 08:18:01;;;;;;;343.60;86.38;;;;;;;-0.79;100.00;101908.47;6266329;22;20063;-84
2021/01/09 08:20:27;;;;;;;305.33;65.93;;;;;;;-0.82;100.00;101919.13;6297301;22;20012;-83
2021/01/09 08:23:03;;;;;;;319.25;83.03;;;;;;;-0.81;100.00;101913.78;6269292;22;20134;-84
2021/01/09 08:25:33;;;;;;;462.55;104.47;;;;;;;-0.73;100.00;101908.22;6296128;22;20019;-84
2021/01/09 08:28:00;;;;;;;448.05;100.18;;;;;;;-0.73;100.00;101911.69;6295187;22;20082;-85
2021/01/09 08:30:28;;;;;;;271.45;84.90;;;;;;;-0.70;100.00;101918.63;6296549;22;20018;-84
2021/01/09 08:33:07;;;;;;;308.08;85.53;;;;;;;-0.73;100.00;101922.25;6295510;22;20019;-84
2021/01/09 08:35:35;;;;;;;282.23;75.87;;;;;;;-0.72;100.00;101926.63;6268132;22;20012;-85
2021/01/09 08:38:07;;;;;;;268.00;78.70;;;;;;;-0.70;100.00;101919.47;6266315;22;20370;-84
2021/01/09 08:40:36;;;;;;;291.58;84.28;;;;;;;-0.70;100.00;101930.03;6267697;22;20250;-84
2021/01/09 08:43:03;;;;;;;252.60;73.03;;;;;;;-0.66;100.00;101929.88;6265448;22;20072;-84
2021/01/09 08:45:45;;;;;;;307.92;89.78;;;;;;;-0.64;100.00;101930.69;6270183;22;20015;-84
2021/01/09 08:48:34;;;;;;;257.02;84.43;;;;;;;-0.62;100.00;101940.25;6271534;22;20585;-84
2021/01/09 08:51:18;;;;;;;308.73;101.43;;;;;;;-0.61;100.00;101941.97;6269347;22;20022;-85
2021/01/09 08:54:00;;;;;;;449.45;123.68;;;;;;;-0.60;100.00;101927.88;6268772;22;20015;-84
2021/01/09 08:56:30;;;;;;;319.38;96.38;;;;;;;-0.58;100.00;101943.63;6269203;22;20011;-84
2021/01/09 08:59:06;;;;;;;274.15;88.57;;;;;;;-0.58;100.00;101943.63;6270401;22;20018;-84
2021/01/09 09:01:51;;;;;;;314.33;78.72;;;;;;;-0.60;100.00;101941.06;6271321;22;20043;-84
2021/01/09 09:04:25;;;;;;;262.48;89.00;;;;;;;-0.54;100.00;101942.59;6244763;22;20446;-84
2021/01/09 09:07:01;;;;;;;270.50;91.18;;;;;;;-0.53;100.00;101942.50;6264937;22;20028;-84
2021/01/09 09:09:32;;;;;;;238.02;81.70;;;;;;;-0.51;100.00;101950.34;6291009;22;20011;-84
2021/01/09 09:11:57;;;;;;;244.05;89.70;;;;;;;-0.53;100.00;101944.28;6267925;22;20015;-84
2021/01/09 09:14:25;;;;;;;266.05;95.85;;;;;;;-0.47;100.00;101954.56;6243361;22;20032;-81
2021/01/09 09:17:03;;;;;;;236.57;89.72;;;;;;;-0.49;100.00;101946.75;6228619;23;20019;-83
2021/01/09 09:19:35;;;;;;;212.30;77.90;;;;;;;-0.46;100.00;101956.31;6236604;23;20408;-83
2021/01/09 09:22:01;;;;;;;189.90;67.47;;;;;;;-0.44;100.00;101957.06;6210176;23;20456;-83
2021/01/09 09:24:41;;;;;;;197.55;77.88;;;;;;;-0.43;100.00;101964.09;6209607;23;20020;-81
2021/01/09 09:27:26;;;;;;;195.70;71.40;;;;;;;-0.41;100.00;101959.56;6236478;23;20070;-80
2021/01/09 09:30:11;;;;;;;206.30;76.30;;;;;;;-0.37;100.00;101955.06;6236854;23;20015;-81
2021/01/09 09:32:38;;;;;;;217.18;77.18;;;;;;;-0.41;100.00;101964.84;6237057;23;20012;-82
2021/01/09 09:35:27;;;;;;;189.90;66.68;;;;;;;-0.46;100.00;101966.84;6236813;23;20028;-81
2021/01/09 09:37:54;;;;;;;202.02;77.07;;;;;;;-0.40;100.00;101969.22;6236791;23;20023;-81
2021/01/09 09:40:30;;;;;;;242.35;90.20;;;;;;;-0.41;100.00;101970.13;6237462;23;20070;-80
2021/01/09 09:43:13;;;;;;;186.88;81.43;;;;;;;-0.36;100.00;101973.44;6211976;23;20139;-80
2021/01/09 09:45:39;;;;;;;159.95;73.32;;;;;;;-0.34;100.00;101976.88;6238167;23;20016;-80
2021/01/09 09:48:04;;;;;;;148.27;70.72;;;;;;;-0.28;100.00;101976.59;6268640;22;20084;-81
2021/01/09 09:50:33;;;;;;;131.93;55.10;;;;;;;-0.37;100.00;101977.00;6271778;22;20023;-81
2021/01/09 09:53:05;;;;;;;143.20;59.72;;;;;;;-0.31;100.00;101976.75;6271004;22;20016;-81
2021/01/09 09:55:32;;;;;;;136.93;56.70;;;;;;;-0.32;100.00;101969.72;6245431;22;20031;-81
2021/01/09 09:58:10;;;;;;;164.52;75.00;;;;;;;-0.22;100.00;101974.63;6242649;22;20379;-81
2021/01/09 10:00:42;;;;;;;175.98;82.00;;;;;;;-0.17;100.00;101976.16;6269239;22;20613;-81
2021/01/09 10:03:08;;;;;;;160.45;73.75;;;;;;;-0.23;100.00;101979.06;6270152;22;20015;-81
2021/01/09 10:05:33;;;;;;;161.07;74.45;;;;;;;-0.16;100.00;101977.84;6271689;22;20073;-81
2021/01/09 10:08:15;;;;;;;147.10;60.92;;;;;;;-0.18;100.00;101976.22;6271411;22;20014;-81
2021/01/09 10:10:49;;;;;;;147.88;70.82;;;;;;;-0.14;100.00;101980.44;6270089;22;20023;-81
2021/01/09 10:13:24;;;;;;;149.35;65.90;;;;;;;-0.13;100.00;101976.88;6247486;22;20485;-82
2021/01/09 10:15:49;;;;;;;144.25;60.92;;;;;;;-0.19;100.00;101978.00;6273551;22;20023;-81
2021/01/09 10:18:14;;;;;;;153.75;57.53;;;;;;;-0.10;100.00;101982.88;6273539;22;20309;-81
2021/01/09 10:20:40;;;;;;;143.13;59.45;;;;;;;-0.13;100.00;101985.66;6272498;22;20023;-81
2021/01/09 10:23:05;;;;;;;162.20;69.05;;;;;;;-0.06;100.00;101980.94;6272675;22;20020;-81
2021/01/09 10:25:31;;;;;;;172.35;78.07;;;;;;;-0.03;100.00;101979.06;6272030;22;20019;-81
2021/01/09 10:27:56;;;;;;;162.75;67.63;;;;;;;-0.05;100.00;101980.03;6272934;22;20015;-81
2021/01/09 10:30:21;;;;;;;165.02;66.40;;;;;;;-0.02;100.00;101982.53;6273419;22;20054;-80
2021/01/09 10:32:47;;;;;;;164.77;67.88;;;;;;;-0.03;100.00;101980.81;6271780;22;20023;-81
2021/01/09 10:35:12;;;;;;;147.15;58.05;;;;;;;-0.04;100.00;101977.31;6273878;22;20355;-80
2021/01/09 10:37:38;;;;;;;169.35;71.35;;;;;;;0.02;100.00;101981.47;6273244;22;20456;-81
2021/01/09 10:40:04;;;;;;;145.65;63.72;;;;;;;0.04;100.00;101984.91;6271659;22;20125;-81
2021/01/09 10:42:29;;;;;;;136.88;60.65;;;;;;;0.08;100.00;101983.00;6272146;22;20446;-83
2021/01/09 10:44:55;;;;;;;133.30;65.68;;;;;;;0.12;100.00;101977.50;6271355;22;20015;-83
2021/01/09 10:47:20;;;;;;;132.57;68.30;;;;;;;0.15;100.00;101968.59;6272679;22;20015;-80
2021/01/09 10:49:46;;;;;;;140.60;70.05;;;;;;;0.15;100.00;101974.75;6296599;22;20016;-80
2021/01/09 10:52:11;;;;;;;123.25;59.63;;;;;;;0.13;100.00;101971.31;6272853;22;20019;-83
2021/01/09 10:54:36;;;;;;;130.60;64.68;;;;;;;0.16;100.00;101970.31;6271404;22;20015;-82
2021/01/09 10:57:02;;;;;;;132.00;61.75;;;;;;;0.19;100.00;101968.38;6267975;22;20123;-81
2021/01/09 10:59:27;;;;;;;126.90;57.00;;;;;;;0.20;100.00;101970.13;6265067;22;20479;-83
2021/01/09 11:01:56;;;;;;;134.65;70.60;;;;;;;0.30;100.00;101972.34;6266701;22;20701;-80
2021/01/09 11:04:22;;;;;;;;;;;;;;;0.29;100.00;101965.31;6268142;22;20050;-81
2021/01/09 11:06:47;;;;;;;117.57;58.75;;;;;;;0.18;100.00;101964.03;6266831;22;19912;-84
2021/01/09 11:09:12;;;;;;;131.13;63.95;;;;;;;0.22;100.00;101965.59;6267128;22;20015;-81
2021/01/09 11:11:38;;;;;;;124.78;67.10;;;;;;;0.27;100.00;101969.84;6267508;22;20042;-81